createdAt,value
2022-10-14T00:00:40.352Z,16.37
2022-10-14T00:03:07.115Z,16.90
2022-10-14T00:05:41.135Z,16.73
2022-10-14T00:08:09.677Z,17.40
2022-10-14T00:10:39.839Z,16.50
2022-10-14T00:13:09.098Z,17.00
2022-10-14T00:15:40.034Z,16.83
2022-10-14T00:18:08.210Z,16.57
2022-10-14T00:20:35.374Z,16.57
2022-10-14T00:23:02.539Z,16.70
2022-10-14T00:25:29.552Z,16.13
2022-10-14T00:27:56.430Z,16.00
2022-10-14T00:30:23.323Z,16.63
2022-10-14T00:32:50.044Z,18.13
2022-10-14T00:35:19.173Z,17.40
2022-10-14T00:37:46.146Z,16.80
2022-10-14T00:40:13.222Z,17.70
2022-10-14T00:42:39.966Z,17.03
2022-10-14T00:45:20.516Z,16.93
2022-10-14T00:47:47.381Z,15.90
2022-10-14T00:50:14.261Z,17.00
2022-10-14T00:52:40.998Z,16.50
2022-10-14T00:55:14.375Z,17.43
2022-10-14T00:57:43.269Z,16.60
2022-10-14T01:00:12.855Z,16.83
2022-10-14T01:02:39.841Z,16.83
2022-10-14T01:05:09.906Z,15.23
2022-10-14T01:07:56.964Z,16.40
2022-10-14T01:10:29.231Z,16.07
2022-10-14T01:12:56.094Z,16.03
2022-10-14T01:15:42.529Z,18.50
2022-10-14T01:18:21.169Z,16.40
2022-10-14T01:20:47.941Z,16.13
2022-10-14T01:23:36.032Z,16.90
2022-10-14T01:26:10.153Z,17.20
2022-10-14T01:28:45.789Z,16.60
2022-10-14T01:31:20.357Z,16.90
2022-10-14T01:33:47.090Z,17.20
2022-10-14T01:36:35.331Z,16.73
2022-10-14T01:39:15.385Z,16.60
2022-10-14T01:41:45.897Z,16.83
2022-10-14T01:44:12.891Z,17.13
2022-10-14T01:46:40.741Z,17.07
2022-10-14T01:49:48.522Z,17.40
2022-10-14T01:52:20.166Z,16.87
2022-10-14T01:54:48.054Z,17.47
2022-10-14T01:57:17.473Z,17.50
2022-10-14T01:59:44.273Z,17.47
2022-10-14T02:02:14.193Z,16.93
2022-10-14T02:04:40.994Z,17.93
2022-10-14T02:07:15.119Z,16.83
2022-10-14T02:10:14.949Z,18.37
2022-10-14T02:13:00.468Z,16.70
2022-10-14T02:15:34.537Z,18.67
2022-10-14T02:18:24.077Z,17.33
2022-10-14T02:21:00.036Z,17.23
2022-10-14T02:23:28.835Z,18.17
2022-10-14T02:25:57.700Z,18.17
2022-10-14T02:28:26.595Z,17.53
2022-10-14T02:30:58.675Z,16.90
2022-10-14T02:33:33.164Z,18.00
2022-10-14T02:36:05.795Z,17.20
2022-10-14T02:38:32.529Z,17.80
2022-10-14T02:41:00.296Z,18.33
2022-10-14T02:43:27.286Z,17.20
2022-10-14T02:46:00.148Z,18.30
2022-10-14T02:48:29.245Z,17.30
2022-10-14T02:50:58.169Z,18.90
2022-10-14T02:53:24.896Z,17.40
2022-10-14T02:55:51.675Z,17.20
2022-10-14T02:58:18.425Z,17.93
2022-10-14T03:00:48.193Z,17.00
2022-10-14T03:03:17.332Z,18.47
2022-10-14T03:05:44.367Z,18.40
2022-10-14T03:08:13.702Z,18.33
2022-10-14T03:10:42.602Z,17.70
2022-10-14T03:13:09.381Z,17.60
2022-10-14T03:15:38.503Z,17.73
2022-10-14T03:18:07.703Z,17.53
2022-10-14T03:20:34.690Z,16.53
2022-10-14T03:23:04.243Z,16.93
2022-10-14T03:25:33.540Z,16.93
2022-10-14T03:28:00.391Z,18.23
2022-10-14T03:30:27.245Z,16.63
2022-10-14T03:32:54.024Z,16.73
2022-10-14T03:35:20.912Z,16.60
2022-10-14T03:37:47.777Z,17.87
2022-10-14T03:40:14.597Z,17.50
2022-10-14T03:42:43.629Z,17.97
2022-10-14T03:45:10.903Z,17.27
2022-10-14T03:47:37.719Z,18.93
2022-10-14T03:50:05.192Z,18.47
2022-10-14T03:52:33.264Z,18.13
2022-10-14T03:55:00.039Z,17.57
2022-10-14T03:57:28.954Z,18.47
2022-10-14T03:59:58.311Z,18.30
2022-10-14T04:02:27.592Z,17.80
2022-10-14T04:04:59.813Z,17.90
2022-10-14T04:07:29.806Z,17.83
2022-10-14T04:09:57.029Z,17.60
2022-10-14T04:12:26.050Z,18.50
2022-10-14T04:14:57.217Z,17.97
2022-10-14T04:17:24.850Z,17.37
2022-10-14T04:19:51.932Z,18.57
2022-10-14T04:22:19.298Z,18.17
2022-10-14T04:24:48.679Z,18.17
2022-10-14T04:27:15.422Z,18.50
2022-10-14T04:29:44.655Z,18.27
2022-10-14T04:32:11.400Z,18.03
2022-10-14T04:34:38.489Z,17.97
2022-10-14T04:37:05.311Z,17.60
2022-10-14T04:39:32.114Z,18.93
2022-10-14T04:41:58.929Z,18.37
2022-10-14T04:44:25.670Z,18.10
2022-10-14T04:46:52.422Z,18.37
2022-10-14T04:49:19.186Z,17.80
2022-10-14T04:51:46.023Z,18.37
2022-10-14T04:54:15.273Z,18.37
2022-10-14T04:56:44.587Z,17.77
2022-10-14T04:59:14.445Z,18.67
2022-10-14T05:01:41.629Z,18.73
2022-10-14T05:04:08.465Z,18.20
2022-10-14T05:06:37.477Z,17.83
2022-10-14T05:09:09.970Z,18.80
2022-10-14T05:11:36.732Z,18.83
2022-10-14T05:14:03.516Z,19.37
2022-10-14T05:16:30.287Z,18.80
2022-10-14T05:18:57.617Z,19.33
2022-10-14T05:21:24.488Z,18.37
2022-10-14T05:23:51.342Z,19.33
2022-10-14T05:26:18.168Z,19.10
2022-10-14T05:28:44.994Z,18.73
2022-10-14T05:31:14.093Z,18.50
2022-10-14T05:33:40.823Z,19.10
2022-10-14T05:36:07.954Z,18.13
2022-10-14T05:38:34.877Z,18.90
2022-10-14T05:41:01.796Z,18.83
2022-10-14T05:43:32.353Z,19.37
2022-10-14T05:46:00.068Z,19.03
2022-10-14T05:48:32.266Z,18.10
2022-10-14T05:51:02.259Z,18.33
2022-10-14T05:53:29.331Z,18.73
2022-10-14T05:56:06.746Z,19.70
2022-10-14T05:58:33.803Z,20.23
2022-10-14T06:01:03.647Z,18.63
2022-10-14T06:03:30.587Z,20.23
2022-10-14T06:05:57.352Z,20.27
2022-10-14T06:08:24.857Z,21.07
2022-10-14T06:10:52.397Z,22.20
2022-10-14T06:13:24.345Z,20.07
2022-10-14T06:15:51.167Z,19.80
2022-10-14T06:18:20.304Z,19.47
2022-10-14T06:20:53.932Z,20.80
2022-10-14T06:23:20.815Z,20.37
2022-10-14T06:25:47.559Z,20.87
2022-10-14T06:28:14.386Z,19.70
2022-10-14T06:30:41.333Z,19.67
2022-10-14T06:33:08.173Z,20.77
2022-10-14T06:35:35.257Z,20.00
2022-10-14T06:38:02.011Z,19.63
2022-10-14T06:40:28.760Z,20.33
2022-10-14T06:42:55.569Z,19.20
2022-10-14T06:45:22.356Z,19.63
2022-10-14T06:47:49.118Z,20.80
2022-10-14T06:50:18.515Z,20.27
2022-10-14T06:52:46.134Z,19.00
2022-10-14T06:55:12.987Z,20.67
2022-10-14T06:57:39.793Z,19.97
2022-10-14T07:00:07.196Z,20.07
2022-10-14T07:02:33.973Z,20.33
2022-10-14T07:05:00.901Z,21.27
2022-10-14T07:07:32.840Z,21.17
2022-10-14T07:10:00.013Z,21.17
2022-10-14T07:12:26.938Z,21.70
2022-10-14T07:14:53.661Z,21.53
2022-10-14T07:17:21.093Z,21.03
2022-10-14T07:19:48.011Z,21.83
2022-10-14T07:22:16.469Z,21.07
2022-10-14T07:24:45.752Z,21.30
2022-10-14T07:27:12.554Z,21.27
2022-10-14T07:29:44.245Z,21.53
2022-10-14T07:32:10.981Z,21.10
2022-10-14T07:34:39.854Z,21.13
2022-10-14T07:37:11.230Z,20.03
2022-10-14T07:39:40.262Z,21.57
2022-10-14T07:42:07.211Z,21.10
2022-10-14T07:44:33.968Z,21.23
2022-10-14T07:47:03.339Z,21.43
2022-10-14T07:49:32.540Z,21.17
2022-10-14T07:51:59.308Z,21.67
2022-10-14T07:54:29.382Z,20.80
2022-10-14T07:56:57.943Z,20.83
2022-10-14T07:59:27.239Z,21.03
2022-10-14T08:01:54.333Z,20.43
2022-10-14T08:04:25.844Z,19.70
2022-10-14T08:06:52.849Z,20.50
2022-10-14T08:09:19.875Z,20.80
2022-10-14T08:11:48.830Z,19.30
2022-10-14T08:14:15.840Z,19.00
2022-10-14T08:16:45.240Z,18.40
2022-10-14T08:19:14.639Z,19.27
2022-10-14T08:21:42.739Z,19.40
2022-10-14T08:24:12.159Z,19.40
2022-10-14T08:27:01.124Z,18.80
2022-10-14T08:29:30.326Z,17.87
2022-10-14T08:31:57.078Z,19.07
2022-10-14T08:34:24.553Z,18.67
2022-10-14T08:36:54.007Z,18.23
2022-10-14T08:39:21.625Z,18.77
2022-10-14T08:42:02.374Z,18.57
2022-10-14T08:44:37.824Z,18.83
2022-10-14T08:47:04.706Z,18.70
2022-10-14T08:50:07.004Z,18.10
2022-10-14T08:52:40.601Z,17.23
2022-10-14T08:55:37.454Z,16.60
2022-10-14T09:00:53.283Z,17.30
2022-10-14T09:03:24.753Z,17.30
2022-10-14T09:05:59.799Z,16.67
2022-10-14T09:08:34.032Z,17.73
2022-10-14T09:11:01.115Z,16.40
2022-10-14T09:13:46.685Z,16.60
2022-10-14T09:16:18.914Z,15.77
2022-10-14T09:18:50.994Z,16.67
2022-10-14T09:24:23.893Z,16.20
2022-10-14T09:27:18.096Z,16.67
2022-10-14T09:29:51.095Z,16.37
2022-10-14T09:32:31.742Z,15.10
2022-10-14T09:35:00.962Z,16.13
2022-10-14T09:37:29.345Z,15.87
2022-10-14T09:39:59.399Z,16.10
2022-10-14T09:42:37.075Z,15.13
2022-10-14T09:45:12.427Z,15.47
2022-10-14T09:47:44.850Z,16.10
2022-10-14T09:50:19.951Z,16.50
2022-10-14T09:52:52.587Z,16.53
2022-10-14T09:55:20.440Z,16.30
2022-10-14T09:57:47.686Z,15.83
2022-10-14T10:00:28.549Z,16.13
2022-10-14T10:02:55.399Z,14.83
2022-10-14T10:05:30.253Z,15.63
2022-10-14T10:08:07.637Z,15.23
2022-10-14T10:10:36.586Z,14.97
2022-10-14T10:13:03.480Z,14.73
2022-10-14T10:15:30.331Z,15.23
2022-10-14T10:17:57.092Z,14.33
2022-10-14T10:20:33.885Z,14.93
2022-10-14T10:23:19.448Z,15.03
2022-10-14T10:25:46.326Z,14.90
2022-10-14T10:28:23.574Z,14.47
2022-10-14T10:31:12.943Z,14.97
2022-10-14T10:33:42.745Z,16.03
2022-10-14T10:36:13.411Z,15.80
2022-10-14T10:38:47.560Z,15.90
2022-10-14T10:41:49.937Z,15.10
2022-10-14T10:44:44.700Z,15.10
2022-10-14T10:47:43.565Z,15.03
2022-10-14T10:50:18.619Z,15.97
2022-10-14T10:52:49.069Z,15.73
2022-10-14T10:55:37.680Z,15.43
2022-10-14T10:58:34.424Z,15.63
2022-10-14T11:01:26.331Z,15.07
2022-10-14T11:03:59.195Z,14.80
2022-10-14T11:06:52.567Z,14.90
2022-10-14T11:09:47.257Z,15.53
2022-10-14T11:12:26.169Z,15.83
2022-10-14T11:15:12.151Z,15.50
2022-10-14T11:17:54.145Z,15.57
2022-10-14T11:20:37.182Z,15.67
2022-10-14T11:23:40.143Z,17.80
2022-10-14T11:26:20.573Z,17.13
2022-10-14T11:29:13.462Z,16.83
2022-10-14T11:31:47.235Z,17.23
2022-10-14T11:34:32.589Z,17.47
2022-10-14T11:37:31.727Z,17.87
2022-10-14T11:40:02.843Z,16.77
2022-10-14T11:42:38.947Z,16.87
2022-10-14T11:45:44.405Z,16.70
2022-10-14T11:48:33.901Z,16.90
2022-10-14T11:51:40.603Z,17.00
2022-10-14T11:54:20.138Z,17.00
2022-10-14T11:56:47.061Z,16.93
2022-10-14T11:59:19.781Z,16.97
2022-10-14T12:01:49.456Z,15.80
2022-10-14T12:04:21.133Z,15.77
2022-10-14T12:06:51.869Z,15.87
2022-10-14T12:09:30.768Z,15.10
2022-10-14T12:12:03.681Z,16.03
2022-10-14T12:14:36.250Z,14.90
2022-10-14T12:17:17.613Z,15.20
2022-10-14T12:19:48.329Z,16.40
2022-10-14T12:22:28.322Z,17.33
2022-10-14T12:25:03.784Z,17.87
2022-10-14T12:27:30.680Z,17.47
2022-10-14T12:30:00.062Z,17.67
2022-10-14T12:32:27.747Z,18.27
2022-10-14T12:35:35.741Z,18.33
2022-10-14T12:38:05.798Z,18.37
2022-10-14T12:40:32.641Z,18.20
2022-10-14T12:43:13.572Z,17.60
2022-10-14T12:45:48.236Z,17.30
2022-10-14T12:48:21.261Z,18.23
2022-10-14T12:50:48.725Z,18.67
2022-10-14T12:53:22.658Z,18.87
2022-10-14T12:56:03.027Z,19.03
2022-10-14T12:58:41.428Z,18.83
2022-10-14T13:01:19.171Z,18.57
2022-10-14T13:03:52.691Z,19.77
2022-10-14T13:06:32.721Z,18.93
2022-10-14T13:09:15.121Z,18.10
2022-10-14T13:11:53.728Z,18.70
2022-10-14T13:14:27.599Z,18.83
2022-10-14T13:16:55.703Z,18.67
2022-10-14T13:19:34.740Z,18.83
2022-10-14T13:22:02.811Z,17.93
2022-10-14T13:24:35.891Z,17.73
2022-10-14T13:27:30.113Z,17.83
2022-10-14T13:30:24.810Z,17.90
2022-10-14T13:33:25.308Z,18.17
2022-10-14T13:36:42.180Z,18.77
2022-10-14T13:39:08.977Z,18.87
2022-10-14T13:41:39.115Z,18.10
2022-10-14T13:44:05.924Z,17.57
2022-10-14T13:46:52.547Z,17.20
2022-10-14T13:49:40.716Z,18.20
2022-10-14T13:52:10.734Z,18.07
2022-10-14T13:54:37.485Z,18.77
2022-10-14T13:57:53.638Z,17.97
2022-10-14T14:02:50.346Z,17.53
2022-10-14T14:05:22.244Z,18.27
2022-10-14T14:10:51.439Z,18.30
2022-10-14T14:13:24.730Z,18.40
2022-10-14T14:15:52.381Z,17.27
2022-10-14T14:19:03.587Z,18.60
2022-10-14T14:21:28.551Z,17.47
2022-10-14T14:23:59.734Z,16.63
2022-10-14T14:26:32.709Z,18.63
2022-10-14T14:29:02.599Z,16.50
2022-10-14T14:31:47.922Z,17.17
2022-10-14T14:34:19.688Z,17.43
2022-10-14T14:36:51.765Z,17.10
2022-10-14T14:39:27.427Z,16.97
2022-10-14T14:41:58.321Z,16.40
2022-10-14T14:44:33.215Z,17.23
2022-10-14T14:47:01.850Z,17.17
2022-10-14T14:49:32.923Z,16.50
2022-10-14T14:52:00.166Z,17.53
2022-10-14T14:54:28.785Z,16.30
2022-10-14T14:57:04.074Z,17.47
2022-10-14T14:59:36.567Z,17.10
2022-10-14T15:02:15.450Z,15.57
2022-10-14T15:04:42.264Z,16.83
2022-10-14T15:07:18.692Z,17.67
2022-10-14T15:09:52.105Z,16.83
2022-10-14T15:12:21.336Z,16.50
2022-10-14T15:14:53.314Z,16.90
2022-10-14T15:17:39.580Z,17.40
2022-10-14T15:20:29.127Z,18.03
2022-10-14T15:22:58.451Z,17.13
2022-10-14T15:25:31.141Z,16.87
2022-10-14T15:27:58.400Z,17.13
2022-10-14T15:30:40.278Z,17.67
2022-10-14T15:33:14.237Z,17.80
2022-10-14T15:35:43.320Z,17.13
2022-10-14T15:38:17.132Z,18.13
2022-10-14T15:40:47.123Z,16.93
2022-10-14T15:43:17.607Z,18.10
2022-10-14T15:45:45.541Z,17.60
2022-10-14T15:48:19.313Z,19.23
2022-10-14T15:50:46.993Z,18.53
2022-10-14T15:53:13.749Z,18.23
2022-10-14T15:55:40.521Z,17.93
2022-10-14T15:58:08.041Z,18.87
2022-10-14T16:00:34.815Z,18.30
2022-10-14T16:03:03.986Z,19.30
2022-10-14T16:05:33.820Z,17.43
2022-10-14T16:08:00.573Z,18.63
2022-10-14T16:10:33.658Z,19.07
2022-10-14T16:13:01.243Z,18.00
2022-10-14T16:15:47.108Z,18.50
2022-10-14T16:18:14.280Z,17.63
2022-10-14T16:20:41.124Z,18.50
2022-10-14T16:23:07.915Z,19.93
2022-10-14T16:25:40.883Z,19.70
2022-10-14T16:28:10.667Z,19.50
2022-10-14T16:30:44.117Z,20.23
2022-10-14T16:35:38.573Z,19.73
2022-10-14T16:38:05.372Z,20.27
2022-10-14T16:40:36.594Z,21.23
2022-10-14T16:43:04.056Z,20.33
2022-10-14T16:45:30.873Z,22.83
2022-10-14T16:48:02.337Z,23.20
2022-10-14T16:50:29.121Z,22.87
2022-10-14T16:53:14.604Z,24.00
2022-10-14T16:55:41.374Z,23.97
2022-10-14T16:58:08.547Z,24.93
2022-10-14T17:00:35.311Z,25.00
2022-10-14T17:03:02.202Z,25.13
2022-10-14T17:05:31.489Z,25.80
2022-10-14T17:07:58.394Z,25.90
2022-10-14T17:10:27.719Z,27.00
2022-10-14T17:12:57.550Z,24.93
2022-10-14T17:15:24.914Z,27.17
2022-10-14T17:17:53.090Z,26.10
2022-10-14T17:20:21.219Z,26.27
2022-10-14T17:22:49.848Z,25.67
2022-10-14T17:25:17.824Z,25.50
2022-10-14T17:27:44.705Z,25.67
2022-10-14T17:30:12.040Z,26.20
2022-10-14T17:32:41.655Z,27.37
2022-10-14T17:35:14.473Z,26.90
2022-10-14T17:37:42.537Z,26.93
2022-10-14T17:40:11.850Z,27.13
2022-10-14T17:42:38.581Z,27.63
2022-10-14T17:45:08.664Z,26.93
2022-10-14T17:47:35.538Z,27.10
2022-10-14T17:50:05.438Z,26.67
2022-10-14T17:52:32.214Z,28.37
2022-10-14T17:55:01.710Z,28.57
2022-10-14T17:57:28.566Z,28.43
2022-10-14T17:59:55.296Z,28.50
2022-10-14T18:02:22.187Z,29.00
2022-10-14T18:04:49.074Z,27.83
2022-10-14T18:07:16.352Z,28.73
2022-10-14T18:09:43.666Z,27.60
2022-10-14T18:12:10.791Z,27.80
2022-10-14T18:14:41.251Z,28.30
2022-10-14T18:17:10.735Z,28.63
2022-10-14T18:19:40.839Z,27.30
2022-10-14T18:22:07.786Z,27.37
2022-10-14T18:24:38.973Z,26.60
2022-10-14T18:27:05.893Z,27.63
2022-10-14T18:29:34.885Z,28.37
2022-10-14T18:32:01.676Z,27.43
2022-10-14T18:34:31.022Z,28.20
2022-10-14T18:37:02.466Z,27.83
2022-10-14T18:39:29.218Z,29.03
2022-10-14T18:41:56.172Z,28.60
2022-10-14T18:44:25.520Z,28.63
2022-10-14T18:46:52.841Z,29.53
2022-10-14T18:49:21.905Z,28.77
2022-10-14T18:51:48.733Z,29.13
2022-10-14T18:54:20.134Z,27.93
2022-10-14T18:56:49.359Z,28.50
2022-10-14T18:59:23.187Z,28.10
2022-10-14T19:01:53.656Z,29.23
2022-10-14T19:04:21.952Z,28.47
2022-10-14T19:06:49.874Z,28.80
2022-10-14T19:09:21.462Z,28.23
2022-10-14T19:11:51.596Z,27.57
2022-10-14T19:14:18.406Z,28.70
2022-10-14T19:16:47.510Z,28.37
2022-10-14T19:19:18.086Z,29.77
2022-10-14T19:21:45.680Z,29.80
2022-10-14T19:24:12.801Z,29.30
2022-10-14T19:26:41.509Z,29.57
2022-10-14T19:29:14.502Z,28.80
2022-10-14T19:31:44.164Z,30.00
2022-10-14T19:34:12.845Z,29.13
2022-10-14T19:36:39.756Z,29.80
2022-10-14T19:39:10.145Z,30.17
2022-10-14T19:41:43.135Z,28.50
2022-10-14T19:44:10.988Z,30.33
2022-10-14T19:46:42.229Z,29.33
2022-10-14T19:49:13.594Z,29.63
2022-10-14T19:51:40.492Z,29.67
2022-10-14T19:54:12.442Z,28.90
2022-10-14T19:56:41.727Z,30.07
2022-10-14T19:59:08.650Z,30.00
2022-10-14T20:01:37.723Z,30.37
2022-10-14T20:04:04.557Z,30.60
2022-10-14T20:06:35.778Z,31.07
2022-10-14T20:09:02.748Z,30.43
2022-10-14T20:11:29.532Z,31.23
2022-10-14T20:13:56.394Z,31.17
2022-10-14T20:16:23.220Z,32.37
2022-10-14T20:18:52.438Z,31.97
2022-10-14T20:21:19.256Z,32.50
2022-10-14T20:23:45.985Z,31.10
2022-10-14T20:26:14.981Z,31.20
2022-10-14T20:28:41.926Z,31.07
2022-10-14T20:31:12.275Z,30.57
2022-10-14T20:33:41.552Z,31.63
2022-10-14T20:36:13.585Z,30.53
2022-10-14T20:38:40.707Z,31.63
2022-10-14T20:41:18.507Z,31.37
2022-10-14T20:43:45.618Z,31.17
2022-10-14T20:46:12.572Z,31.20
2022-10-14T20:48:39.894Z,31.13
2022-10-14T20:51:10.384Z,30.63
2022-10-14T20:53:37.462Z,33.33
2022-10-14T20:56:07.318Z,32.33
2022-10-14T20:58:34.194Z,33.10
2022-10-14T21:01:05.855Z,31.77
2022-10-14T21:03:35.221Z,32.60
2022-10-14T21:06:09.084Z,32.33
2022-10-14T21:08:36.092Z,32.57
2022-10-14T21:11:05.502Z,32.73
2022-10-14T21:13:33.135Z,31.37
2022-10-14T21:15:59.888Z,31.97
2022-10-14T21:18:29.539Z,31.27
2022-10-14T21:20:56.308Z,31.03
2022-10-14T21:23:23.158Z,32.27
2022-10-14T21:26:03.319Z,31.87
2022-10-14T21:28:32.420Z,31.60
2022-10-14T21:31:01.363Z,33.10
2022-10-14T21:33:30.218Z,31.57
2022-10-14T21:36:04.664Z,32.47
2022-10-14T21:38:31.503Z,32.10
2022-10-14T21:41:00.046Z,32.87
2022-10-14T21:43:30.276Z,31.57
2022-10-14T21:46:03.420Z,32.57
2022-10-14T21:48:32.499Z,33.33
2022-10-14T21:51:13.775Z,33.37
2022-10-14T21:53:41.429Z,34.10
2022-10-14T21:56:08.607Z,33.23
2022-10-14T21:58:37.704Z,34.10
2022-10-14T22:01:16.942Z,34.33
2022-10-14T22:03:44.208Z,32.33
2022-10-14T22:06:18.197Z,32.93
2022-10-14T22:08:48.708Z,34.43
2022-10-14T22:11:21.652Z,33.83
2022-10-14T22:13:48.791Z,33.40
2022-10-14T22:16:16.980Z,33.10
2022-10-14T22:18:46.975Z,33.37
2022-10-14T22:21:15.369Z,35.40
2022-10-14T22:23:46.825Z,34.33
2022-10-14T22:26:20.306Z,34.87
2022-10-14T22:28:47.400Z,37.30
2022-10-14T22:31:19.026Z,35.50
2022-10-14T22:33:48.879Z,33.90
2022-10-14T22:36:24.099Z,35.27
2022-10-14T22:38:53.903Z,34.17
2022-10-14T22:41:21.205Z,35.03
2022-10-14T22:43:49.364Z,35.20
2022-10-14T22:46:19.560Z,33.87
2022-10-14T22:48:49.187Z,35.50
2022-10-14T22:51:18.235Z,36.53
2022-10-14T22:53:47.570Z,35.77
2022-10-14T22:56:17.623Z,35.73
2022-10-14T22:58:46.862Z,35.57
2022-10-14T23:01:15.141Z,33.77
2022-10-14T23:03:42.009Z,33.93
2022-10-14T23:06:10.636Z,36.03
2022-10-14T23:08:39.517Z,34.60
2022-10-14T23:11:06.633Z,34.77
2022-10-14T23:13:35.615Z,35.50
2022-10-14T23:16:09.598Z,35.03
2022-10-14T23:18:39.101Z,35.73
2022-10-14T23:21:08.950Z,37.23
2022-10-14T23:23:38.247Z,35.53
2022-10-14T23:26:05.384Z,33.60
2022-10-14T23:28:32.166Z,35.40
2022-10-14T23:31:01.312Z,35.43
2022-10-14T23:33:28.284Z,34.93
2022-10-14T23:35:55.082Z,36.27
2022-10-14T23:38:21.891Z,37.07
2022-10-14T23:40:50.751Z,36.00
2022-10-14T23:43:19.471Z,35.77
2022-10-14T23:45:48.534Z,35.93
2022-10-14T23:48:15.346Z,35.47
2022-10-14T23:50:49.205Z,35.67
2022-10-14T23:53:18.545Z,36.77
2022-10-14T23:55:47.735Z,37.70
2022-10-14T23:58:14.664Z,35.87
